createdAt,value
2019-01-26T00:02:16.017Z,35.90
2019-01-26T00:04:47.842Z,44.05
2019-01-26T00:07:18.789Z,31.90
2019-01-26T00:09:52.657Z,36.13
2019-01-26T00:12:23.291Z,34.78
2019-01-26T00:14:53.894Z,40.03
2019-01-26T00:17:29.855Z,35.08
2019-01-26T00:20:00.415Z,26.65
2019-01-26T00:22:31.066Z,40.00
2019-01-26T00:25:01.537Z,39.58
2019-01-26T00:27:32.102Z,36.48
2019-01-26T00:30:03.125Z,34.45
2019-01-26T00:32:35.876Z,34.18
2019-01-26T00:35:07.545Z,32.80
2019-01-26T00:37:38.840Z,33.42
2019-01-26T00:40:12.842Z,43.15
2019-01-26T00:42:43.510Z,38.83
2019-01-26T00:45:16.396Z,44.03
2019-01-26T00:47:47.355Z,40.85
2019-01-26T00:50:18.800Z,39.92
2019-01-26T00:52:50.565Z,39.33
2019-01-26T00:55:24.432Z,46.40
2019-01-26T00:57:55.114Z,46.98
2019-01-26T01:00:25.822Z,38.30
2019-01-26T01:02:56.554Z,40.70
2019-01-26T01:05:36.838Z,37.33
2019-01-26T01:08:07.609Z,35.75
2019-01-26T01:10:38.696Z,41.02
2019-01-26T01:13:09.370Z,46.90
2019-01-26T01:15:42.340Z,44.80
2019-01-26T01:18:12.874Z,49.88
2019-01-26T01:20:44.195Z,43.60
2019-01-26T01:23:16.918Z,54.90
2019-01-26T01:25:47.268Z,38.08
2019-01-26T01:28:18.212Z,48.25
2019-01-26T01:30:49.134Z,48.15
2019-01-26T01:33:20.058Z,37.13
2019-01-26T01:35:52.183Z,49.75
2019-01-26T01:38:23.623Z,46.37
2019-01-26T01:40:54.571Z,39.88
2019-01-26T01:43:25.203Z,56.88
2019-01-26T01:45:59.276Z,38.67
2019-01-26T01:48:29.857Z,32.30
2019-01-26T01:51:01.667Z,37.20
2019-01-26T01:53:32.281Z,33.67
2019-01-26T01:56:05.067Z,39.67
2019-01-26T01:58:35.721Z,39.13
2019-01-26T02:01:06.484Z,35.20
2019-01-26T02:03:39.063Z,39.03
2019-01-26T02:06:09.445Z,42.73
2019-01-26T02:08:40.639Z,38.55
2019-01-26T02:11:11.321Z,36.55
2019-01-26T02:13:45.187Z,41.45
2019-01-26T02:16:15.817Z,42.23
2019-01-26T02:18:46.434Z,35.58
2019-01-26T02:21:17.761Z,36.95
2019-01-26T02:23:48.361Z,32.83
2019-01-26T02:26:22.017Z,35.73
2019-01-26T02:28:55.020Z,38.53
2019-01-26T02:31:26.815Z,43.87
2019-01-26T02:34:00.209Z,34.67
2019-01-26T02:36:30.932Z,34.03
2019-01-26T02:39:02.740Z,40.10
2019-01-26T02:41:33.751Z,48.38
2019-01-26T02:44:04.574Z,44.38
2019-01-26T02:46:38.751Z,37.30
2019-01-26T02:49:09.724Z,40.35
2019-01-26T02:51:40.398Z,41.45
2019-01-26T02:54:11.041Z,39.23
2019-01-26T02:56:42.074Z,35.50
2019-01-26T02:59:13.125Z,44.08
2019-01-26T03:01:44.074Z,39.78
2019-01-26T03:04:14.707Z,41.55
2019-01-26T03:06:45.395Z,39.90
2019-01-26T03:09:16.461Z,34.90
2019-01-26T03:11:47.529Z,33.85
2019-01-26T03:14:18.236Z,33.75
2019-01-26T03:16:48.880Z,40.40
2019-01-26T03:19:19.539Z,35.68
2019-01-26T03:21:50.836Z,45.12
2019-01-26T03:24:21.482Z,39.80
2019-01-26T03:26:52.106Z,40.92
2019-01-26T03:29:25.040Z,40.45
2019-01-26T03:31:55.353Z,36.60
2019-01-26T03:34:26.049Z,42.27
2019-01-26T03:36:57.611Z,35.95
2019-01-26T03:39:29.066Z,36.83
2019-01-26T03:41:59.822Z,30.32
2019-01-26T03:44:30.414Z,41.58
2019-01-26T03:47:02.739Z,39.92
2019-01-26T03:49:36.619Z,36.35
2019-01-26T03:52:07.323Z,40.25
2019-01-26T03:54:38.015Z,38.75
2019-01-26T03:57:08.724Z,38.35
2019-01-26T03:59:39.439Z,38.17
2019-01-26T04:02:10.140Z,34.53
2019-01-26T04:04:41.675Z,40.88
2019-01-26T04:07:12.714Z,36.83
2019-01-26T04:09:43.331Z,46.77
2019-01-26T04:12:14.003Z,40.03
2019-01-26T04:14:45.024Z,36.95
2019-01-26T04:17:22.003Z,37.07
2019-01-26T04:19:52.149Z,37.15
2019-01-26T04:22:23.112Z,40.60
2019-01-26T04:24:54.035Z,38.02
2019-01-26T04:27:24.988Z,39.13
2019-01-26T04:29:55.908Z,35.43
2019-01-26T04:32:28.363Z,47.98
2019-01-26T04:35:01.766Z,37.57
2019-01-26T04:37:32.830Z,36.58
2019-01-26T04:40:05.561Z,38.05
2019-01-26T04:42:39.454Z,43.70
2019-01-26T04:45:14.448Z,36.17
2019-01-26T04:47:45.937Z,38.15
2019-01-26T04:50:19.450Z,36.67
2019-01-26T04:52:53.335Z,39.65
2019-01-26T04:55:23.978Z,39.53
2019-01-26T04:57:54.767Z,43.23
2019-01-26T05:00:28.940Z,36.23
2019-01-26T05:02:59.586Z,41.28
2019-01-26T05:05:36.606Z,41.48
2019-01-26T05:08:07.293Z,35.78
2019-01-26T05:10:38.631Z,37.03
2019-01-26T05:13:09.305Z,34.88
2019-01-26T05:15:40.243Z,41.30
2019-01-26T05:18:10.925Z,35.15
2019-01-26T05:20:41.584Z,41.40
2019-01-26T05:23:12.283Z,32.42
2019-01-26T05:25:42.934Z,37.78
2019-01-26T05:28:13.548Z,45.58
2019-01-26T05:30:44.207Z,39.58
2019-01-26T05:33:14.834Z,41.88
2019-01-26T05:35:48.209Z,35.68
2019-01-26T05:38:19.236Z,40.17
2019-01-26T05:40:51.649Z,34.40
2019-01-26T05:43:22.589Z,36.05
2019-01-26T05:45:53.244Z,43.02
2019-01-26T05:48:25.098Z,40.73
2019-01-26T05:50:56.066Z,38.90
2019-01-26T05:53:26.752Z,39.00
2019-01-26T05:55:57.436Z,32.95
2019-01-26T05:58:28.093Z,37.93
2019-01-26T06:01:00.310Z,43.42
2019-01-26T06:03:35.552Z,35.23
2019-01-26T06:06:06.225Z,37.25
2019-01-26T06:08:36.903Z,34.80
2019-01-26T06:11:07.614Z,37.05
2019-01-26T06:13:38.347Z,34.60
2019-01-26T06:16:08.948Z,48.02
2019-01-26T06:18:39.824Z,39.45
2019-01-26T06:21:15.219Z,41.80
2019-01-26T06:23:49.567Z,42.25
2019-01-26T06:26:20.225Z,39.58
2019-01-26T06:28:53.812Z,33.85
2019-01-26T06:31:24.830Z,45.10
2019-01-26T06:33:55.553Z,42.57
2019-01-26T06:36:35.004Z,35.98
2019-01-26T06:39:08.169Z,43.48
2019-01-26T06:41:39.566Z,37.85
2019-01-26T06:44:13.357Z,39.30
2019-01-26T06:46:45.197Z,40.38
2019-01-26T06:49:15.925Z,38.35
2019-01-26T06:51:48.187Z,41.30
2019-01-26T06:54:21.424Z,36.70
2019-01-26T06:56:51.473Z,34.27
2019-01-26T06:59:22.131Z,44.63
2019-01-26T07:01:52.819Z,39.95
2019-01-26T07:04:25.454Z,46.37
2019-01-26T07:07:09.351Z,45.70
2019-01-26T07:09:42.992Z,41.63
2019-01-26T07:12:13.604Z,42.80
2019-01-26T07:14:47.521Z,42.27
2019-01-26T07:17:18.125Z,52.03
2019-01-26T07:19:51.202Z,41.75
2019-01-26T07:22:21.863Z,49.97
2019-01-26T07:24:52.816Z,54.27
2019-01-26T07:27:25.179Z,54.65
2019-01-26T07:29:55.857Z,50.63
2019-01-26T07:32:30.530Z,47.43
2019-01-26T07:35:02.098Z,53.15
2019-01-26T07:37:41.211Z,48.67
2019-01-26T07:40:21.200Z,54.93
2019-01-26T07:42:57.215Z,54.33
2019-01-26T07:45:31.526Z,56.17
2019-01-26T07:48:06.462Z,51.43
2019-01-26T07:50:37.487Z,59.37
2019-01-26T07:53:13.642Z,59.80
2019-01-26T07:55:45.401Z,58.47
2019-01-26T07:58:17.376Z,55.60
2019-01-26T08:00:49.448Z,49.87
2019-01-26T08:03:24.406Z,52.93
2019-01-26T08:05:57.018Z,33.07
2019-01-26T08:08:27.692Z,37.83
2019-01-26T08:11:00.806Z,42.27
2019-01-26T08:13:31.549Z,48.58
2019-01-26T08:16:04.221Z,44.27
2019-01-26T08:18:34.653Z,43.70
2019-01-26T08:21:08.368Z,45.92
2019-01-26T08:23:38.116Z,44.77
2019-01-26T08:26:11.690Z,49.18
2019-01-26T08:28:42.314Z,47.97
2019-01-26T08:31:13.052Z,49.57
2019-01-26T08:33:43.669Z,41.80
2019-01-26T08:36:14.620Z,40.67
2019-01-26T08:38:45.997Z,48.43
2019-01-26T08:41:16.679Z,45.00
2019-01-26T08:43:48.086Z,52.27
2019-01-26T08:46:18.728Z,46.60
2019-01-26T08:48:49.582Z,49.43
2019-01-26T08:51:20.381Z,46.70
2019-01-26T08:53:51.083Z,55.27
2019-01-26T08:56:22.004Z,53.80
2019-01-26T08:58:52.675Z,50.10
2019-01-26T09:01:25.086Z,60.53
2019-01-26T09:04:00.262Z,57.77
2019-01-26T09:06:31.695Z,66.07
2019-01-26T09:09:02.344Z,53.30
2019-01-26T09:11:33.833Z,55.57
2019-01-26T09:14:04.589Z,51.97
2019-01-26T09:16:37.825Z,47.67
2019-01-26T09:19:10.275Z,49.40
2019-01-26T09:21:41.024Z,48.50
2019-01-26T09:24:11.971Z,49.63
2019-01-26T09:26:42.589Z,51.63
2019-01-26T09:29:13.282Z,50.70
2019-01-26T09:31:48.266Z,47.13
2019-01-26T09:34:18.965Z,53.47
2019-01-26T09:36:49.943Z,54.40
2019-01-26T09:39:21.125Z,56.63
2019-01-26T09:41:51.896Z,60.97
2019-01-26T09:44:25.155Z,66.87
2019-01-26T09:46:56.091Z,64.80
2019-01-26T09:49:27.129Z,61.60
2019-01-26T09:51:59.552Z,67.53
2019-01-26T09:54:30.172Z,57.43
2019-01-26T09:57:01.133Z,58.77
2019-01-26T09:59:31.752Z,55.57
2019-01-26T10:02:02.395Z,58.13
2019-01-26T10:04:33.022Z,45.00
2019-01-26T10:07:03.758Z,50.53
2019-01-26T10:09:34.409Z,52.77
2019-01-26T10:12:05.734Z,57.50
2019-01-26T10:14:36.361Z,51.93
2019-01-26T10:17:07.103Z,59.90
2019-01-26T10:19:37.735Z,61.00
2019-01-26T10:22:08.739Z,59.87
2019-01-26T10:24:42.440Z,58.67
2019-01-26T10:27:13.122Z,58.23
2019-01-26T10:29:43.776Z,56.60
2019-01-26T10:32:16.053Z,54.20
2019-01-26T10:34:46.659Z,60.00
2019-01-26T10:37:19.612Z,65.43
2019-01-26T10:39:50.401Z,62.63
2019-01-26T10:42:22.339Z,62.90
2019-01-26T10:44:54.463Z,68.07
2019-01-26T10:47:25.114Z,63.77
2019-01-26T10:49:55.702Z,69.27
2019-01-26T10:52:26.416Z,70.93
2019-01-26T10:54:56.998Z,74.33
2019-01-26T10:57:31.712Z,68.13
2019-01-26T11:00:04.385Z,69.77
2019-01-26T11:02:35.064Z,62.17
2019-01-26T11:05:07.744Z,58.43
2019-01-26T11:07:38.454Z,63.37
2019-01-26T11:10:13.266Z,59.67
2019-01-26T11:12:44.021Z,60.50
2019-01-26T11:15:18.342Z,57.00
2019-01-26T11:17:49.050Z,56.27
2019-01-26T11:20:21.848Z,62.43
2019-01-26T11:22:57.728Z,66.10
2019-01-26T11:25:28.736Z,57.10
2019-01-26T11:28:02.366Z,57.57
2019-01-26T11:30:34.714Z,54.13
2019-01-26T11:33:05.475Z,53.90
2019-01-26T11:35:36.375Z,51.50
2019-01-26T11:38:07.019Z,50.43
2019-01-26T11:40:40.678Z,43.23
2019-01-26T11:43:11.332Z,51.87
2019-01-26T11:45:47.181Z,47.63
2019-01-26T11:48:25.437Z,47.97
2019-01-26T11:51:00.596Z,47.03
2019-01-26T11:53:31.214Z,50.87
2019-01-26T11:56:06.227Z,47.53
2019-01-26T11:58:37.326Z,50.40
2019-01-26T12:01:18.292Z,48.53
2019-01-26T12:03:56.593Z,46.77
2019-01-26T12:06:28.858Z,43.30
2019-01-26T12:08:59.541Z,42.30
2019-01-26T12:11:30.219Z,43.23
2019-01-26T12:14:00.916Z,47.10
2019-01-26T12:16:37.182Z,46.10
2019-01-26T12:19:10.538Z,50.37
2019-01-26T12:21:41.555Z,48.77
2019-01-26T12:24:12.596Z,49.17
2019-01-26T12:26:43.524Z,48.00
2019-01-26T12:29:14.264Z,46.57
2019-01-26T12:31:48.275Z,46.90
2019-01-26T12:34:19.282Z,49.03
2019-01-26T12:36:50.281Z,53.50
2019-01-26T12:39:21.334Z,45.73
2019-01-26T12:41:55.182Z,45.87
2019-01-26T12:44:25.860Z,52.80
2019-01-26T12:46:57.426Z,52.77
2019-01-26T12:49:29.689Z,50.33
2019-01-26T12:52:00.361Z,47.63
2019-01-26T12:54:31.972Z,51.23
2019-01-26T12:57:05.760Z,50.03
2019-01-26T12:59:36.333Z,50.57
2019-01-26T13:02:07.785Z,52.13
2019-01-26T13:04:38.463Z,52.63
2019-01-26T13:07:09.055Z,54.23
2019-01-26T13:09:39.787Z,50.90
2019-01-26T13:12:10.714Z,52.53
2019-01-26T13:14:41.785Z,52.87
2019-01-26T13:17:12.496Z,51.20
2019-01-26T13:19:43.408Z,57.93
2019-01-26T13:22:17.165Z,58.23
2019-01-26T13:24:48.040Z,53.13
2019-01-26T13:27:18.695Z,57.87
2019-01-26T13:29:52.385Z,61.30
2019-01-26T13:32:23.079Z,62.27
2019-01-26T13:34:55.006Z,63.73
2019-01-26T13:37:25.632Z,60.37
2019-01-26T13:39:56.602Z,59.43
2019-01-26T13:42:27.323Z,65.00
2019-01-26T13:45:00.190Z,68.60
2019-01-26T13:47:37.814Z,67.67
2019-01-26T13:50:05.977Z,68.37
2019-01-26T13:52:39.778Z,63.57
2019-01-26T13:55:15.325Z,67.63
2019-01-26T13:57:46.077Z,66.00
2019-01-26T14:00:23.871Z,66.13
2019-01-26T14:02:54.490Z,64.70
2019-01-26T14:05:25.079Z,66.77
2019-01-26T14:07:55.724Z,57.47
2019-01-26T14:10:27.068Z,63.60
2019-01-26T14:12:57.675Z,62.27
2019-01-26T14:15:28.233Z,60.70
2019-01-26T14:18:02.997Z,62.53
2019-01-26T14:20:33.538Z,62.57
2019-01-26T14:23:04.541Z,62.63
2019-01-26T14:25:35.188Z,59.90
2019-01-26T14:28:06.069Z,59.80
2019-01-26T14:30:47.490Z,58.23
2019-01-26T14:33:19.349Z,61.50
2019-01-26T14:35:52.204Z,65.17
2019-01-26T14:38:23.187Z,57.17
2019-01-26T14:40:56.922Z,61.80
2019-01-26T14:43:28.977Z,65.23
2019-01-26T14:46:01.079Z,64.00
2019-01-26T14:48:32.359Z,60.77
2019-01-26T14:51:03.048Z,63.93
2019-01-26T14:53:39.042Z,61.10
2019-01-26T14:56:09.622Z,57.53
2019-01-26T14:58:40.266Z,58.47
2019-01-26T15:01:11.679Z,51.33
2019-01-26T15:03:45.796Z,54.70
2019-01-26T15:06:16.465Z,55.53
2019-01-26T15:08:47.059Z,50.00
2019-01-26T15:11:20.641Z,52.27
2019-01-26T15:13:51.293Z,53.90
2019-01-26T15:16:21.975Z,54.70
2019-01-26T15:18:52.632Z,55.57
2019-01-26T15:21:24.134Z,52.60
2019-01-26T15:23:54.628Z,54.27
2019-01-26T15:26:25.292Z,52.23
2019-01-26T15:28:55.834Z,58.83
2019-01-26T15:31:26.386Z,53.10
2019-01-26T15:33:57.740Z,59.70
2019-01-26T15:36:28.607Z,59.60
2019-01-26T15:39:01.385Z,61.47
2019-01-26T15:41:31.979Z,58.83
2019-01-26T15:44:02.500Z,59.10
2019-01-26T15:46:33.053Z,66.67
2019-01-26T15:49:06.058Z,62.07
2019-01-26T15:51:37.563Z,63.47
2019-01-26T15:54:08.862Z,60.13
2019-01-26T15:56:40.518Z,68.50
2019-01-26T15:59:12.604Z,58.00
2019-01-26T16:01:44.803Z,68.57
2019-01-26T16:04:18.266Z,57.73
2019-01-26T16:06:52.048Z,61.00
2019-01-26T16:09:22.746Z,59.17
2019-01-26T16:11:53.693Z,53.07
2019-01-26T16:14:24.270Z,52.77
2019-01-26T16:16:56.952Z,73.80
2019-01-26T16:19:30.467Z,70.90
2019-01-26T16:22:00.901Z,67.77
2019-01-26T16:24:35.137Z,65.93
2019-01-26T16:27:06.023Z,56.03
2019-01-26T16:29:37.416Z,51.67
2019-01-26T16:32:09.692Z,63.33
2019-01-26T16:34:40.693Z,59.80
2019-01-26T16:37:12.098Z,79.77
2019-01-26T16:39:42.838Z,69.77
2019-01-26T16:42:13.922Z,63.90
2019-01-26T16:44:44.924Z,59.17
2019-01-26T16:47:16.555Z,57.23
2019-01-26T16:49:48.005Z,62.23
2019-01-26T16:52:18.578Z,67.90
2019-01-26T16:54:49.157Z,72.10
2019-01-26T16:57:20.155Z,62.70
2019-01-26T16:59:53.937Z,65.13
2019-01-26T17:02:24.476Z,60.33
2019-01-26T17:04:55.629Z,63.03
2019-01-26T17:07:26.195Z,69.73
2019-01-26T17:09:56.837Z,74.73
2019-01-26T17:12:30.566Z,77.27
2019-01-26T17:15:02.485Z,68.00
2019-01-26T17:17:33.172Z,72.83
2019-01-26T17:20:10.019Z,73.47
2019-01-26T17:22:46.589Z,67.00
2019-01-26T17:25:18.084Z,65.77
2019-01-26T17:27:48.800Z,58.87
2019-01-26T17:30:26.361Z,72.63
2019-01-26T17:32:57.020Z,67.80
2019-01-26T17:35:27.559Z,67.47
2019-01-26T17:37:58.224Z,67.27
2019-01-26T17:40:28.839Z,75.77
2019-01-26T17:42:59.500Z,70.73
2019-01-26T17:45:31.317Z,72.80
2019-01-26T17:48:02.074Z,72.50
2019-01-26T17:50:33.369Z,72.53
2019-01-26T17:53:04.062Z,79.00
2019-01-26T17:55:34.617Z,74.37
2019-01-26T17:58:05.936Z,74.80
2019-01-26T18:00:38.610Z,67.93
2019-01-26T18:03:09.713Z,68.33
2019-01-26T18:05:42.127Z,76.70
2019-01-26T18:08:13.301Z,65.00
2019-01-26T18:10:45.768Z,66.43
2019-01-26T18:13:16.478Z,79.70
2019-01-26T18:15:46.988Z,68.17
2019-01-26T18:18:18.219Z,72.83
2019-01-26T18:20:49.519Z,70.63
2019-01-26T18:23:21.899Z,63.40
2019-01-26T18:25:52.680Z,61.77
2019-01-26T18:28:24.244Z,73.23
2019-01-26T18:30:56.506Z,67.93
2019-01-26T18:33:27.070Z,69.00
2019-01-26T18:35:57.844Z,69.20
2019-01-26T18:38:28.707Z,70.33
2019-01-26T18:40:59.318Z,67.63
2019-01-26T18:43:29.993Z,65.27
2019-01-26T18:46:00.621Z,66.07
2019-01-26T18:48:31.384Z,66.50
2019-01-26T18:51:02.739Z,72.03
2019-01-26T18:53:34.140Z,71.73
2019-01-26T18:56:04.752Z,61.47
2019-01-26T18:58:39.761Z,69.67
2019-01-26T19:01:10.735Z,68.00
2019-01-26T19:03:51.341Z,76.67
2019-01-26T19:06:21.906Z,72.70
2019-01-26T19:08:53.472Z,75.03
2019-01-26T19:11:24.296Z,77.47
2019-01-26T19:13:54.921Z,72.30
2019-01-26T19:16:25.950Z,80.33
2019-01-26T19:18:58.254Z,77.17
2019-01-26T19:21:28.852Z,76.07
2019-01-26T19:24:00.527Z,84.80
2019-01-26T19:26:32.243Z,76.00
2019-01-26T19:29:02.838Z,80.43
2019-01-26T19:31:33.807Z,77.40
2019-01-26T19:34:04.822Z,83.67
2019-01-26T19:36:35.404Z,80.53
2019-01-26T19:39:10.951Z,74.97
2019-01-26T19:41:41.741Z,83.53
2019-01-26T19:44:15.320Z,79.17
2019-01-26T19:46:45.938Z,76.73
2019-01-26T19:49:16.654Z,78.90
2019-01-26T19:51:48.500Z,83.47
2019-01-26T19:54:19.527Z,78.10
2019-01-26T19:56:50.198Z,75.47
2019-01-26T19:59:21.240Z,78.73
2019-01-26T20:01:52.179Z,82.53
2019-01-26T20:04:22.795Z,81.57
2019-01-26T20:06:54.041Z,79.03
2019-01-26T20:09:24.616Z,82.67
2019-01-26T20:11:55.230Z,86.23
2019-01-26T20:14:28.694Z,82.03
2019-01-26T20:16:58.928Z,84.40
2019-01-26T20:19:29.856Z,84.43
2019-01-26T20:22:00.494Z,86.03
2019-01-26T20:24:31.703Z,80.97
2019-01-26T20:27:02.623Z,82.87
2019-01-26T20:29:37.015Z,78.93
2019-01-26T20:32:07.744Z,81.63
2019-01-26T20:34:38.651Z,80.93
2019-01-26T20:37:09.311Z,86.20
2019-01-26T20:39:39.920Z,86.53
2019-01-26T20:42:10.702Z,72.00
2019-01-26T20:44:44.399Z,76.50
2019-01-26T20:47:15.339Z,73.33
2019-01-26T20:49:47.563Z,77.90
2019-01-26T20:52:19.325Z,79.70
2019-01-26T20:54:50.299Z,81.87
2019-01-26T20:57:23.263Z,81.20
2019-01-26T20:59:54.311Z,84.00
2019-01-26T21:02:25.605Z,79.53
2019-01-26T21:04:56.122Z,80.87
2019-01-26T21:07:26.756Z,81.77
2019-01-26T21:10:02.037Z,81.50
2019-01-26T21:12:35.520Z,76.97
2019-01-26T21:15:09.262Z,73.67
2019-01-26T21:17:42.617Z,79.27
2019-01-26T21:20:16.656Z,77.07
2019-01-26T21:22:47.274Z,76.80
2019-01-26T21:25:18.629Z,74.70
2019-01-26T21:27:54.940Z,64.50
2019-01-26T21:30:28.043Z,70.10
2019-01-26T21:32:58.599Z,73.07
2019-01-26T21:35:29.985Z,79.50
2019-01-26T21:38:00.832Z,76.67
2019-01-26T21:40:32.054Z,88.00
2019-01-26T21:43:03.111Z,82.83
2019-01-26T21:45:34.093Z,85.93
2019-01-26T21:48:05.046Z,87.27
2019-01-26T21:50:35.728Z,74.87
2019-01-26T21:53:07.947Z,75.10
2019-01-26T21:55:39.655Z,88.80
2019-01-26T21:58:10.266Z,82.40
2019-01-26T22:00:40.791Z,79.57
2019-01-26T22:03:11.377Z,70.23
2019-01-26T22:05:42.396Z,85.03
2019-01-26T22:08:18.695Z,77.10
2019-01-26T22:10:49.370Z,75.57
2019-01-26T22:13:20.351Z,76.63
2019-01-26T22:15:51.062Z,81.87
2019-01-26T22:18:21.982Z,74.90
2019-01-26T22:20:52.995Z,74.77
2019-01-26T22:23:23.667Z,80.27
2019-01-26T22:25:55.659Z,83.80
2019-01-26T22:28:26.299Z,83.53
2019-01-26T22:30:57.306Z,75.33
2019-01-26T22:33:27.906Z,75.17
2019-01-26T22:35:58.513Z,86.00
2019-01-26T22:38:32.574Z,82.30
2019-01-26T22:41:03.153Z,79.93
2019-01-26T22:43:34.298Z,79.97
2019-01-26T22:46:05.384Z,86.60
2019-01-26T22:48:36.271Z,79.17
2019-01-26T22:51:07.186Z,76.03
2019-01-26T22:53:38.069Z,80.50
2019-01-26T22:56:08.787Z,87.07
2019-01-26T22:58:39.479Z,82.20
2019-01-26T23:01:14.005Z,85.07
2019-01-26T23:04:06.497Z,85.00
2019-01-26T23:06:58.532Z,84.73
2019-01-26T23:09:39.272Z,89.63
2019-01-26T23:12:29.280Z,78.90
2019-01-26T23:15:33.420Z,88.83
2019-01-26T23:18:11.226Z,89.83
2019-01-26T23:20:46.382Z,87.67
2019-01-26T23:23:36.310Z,94.90
2019-01-26T23:26:14.120Z,79.50
2019-01-26T23:28:55.259Z,83.27
2019-01-26T23:31:25.906Z,83.47
2019-01-26T23:33:56.662Z,79.93
2019-01-26T23:36:27.378Z,86.73
2019-01-26T23:39:02.208Z,84.27
2019-01-26T23:41:30.379Z,83.00
2019-01-26T23:44:01.026Z,85.00
2019-01-26T23:46:31.602Z,87.80
2019-01-26T23:49:02.099Z,83.80
2019-01-26T23:51:32.940Z,96.33
2019-01-26T23:54:06.626Z,95.77
2019-01-26T23:56:39.195Z,102.40
2019-01-26T23:59:11.626Z,87.17
